sensor_id;sensor_type;location;lat;lon;timestamp;pressure;altitude;pressure_sealevel;temperature;humidity
8398;BME280;4236;54.504;9.588;2023-07-13T00:01:19;101113.31;;;15.15;100.00
8398;BME280;4236;54.504;9.588;2023-07-13T00:03:47;101103.00;;;15.12;100.00
8398;BME280;4236;54.504;9.588;2023-07-13T00:06:15;101104.25;;;15.10;100.00
8398;BME280;4236;54.504;9.588;2023-07-13T00:08:43;101104.25;;;15.10;100.00
8398;BME280;4236;54.504;9.588;2023-07-13T00:11:11;101099.91;;;15.09;100.00
8398;BME280;4236;54.504;9.588;2023-07-13T00:13:39;101104.50;;;15.08;100.00
8398;BME280;4236;54.504;9.588;2023-07-13T00:16:07;101103.03;;;15.06;100.00
8398;BME280;4236;54.504;9.588;2023-07-13T00:18:37;101109.47;;;15.05;100.00
8398;BME280;4236;54.504;9.588;2023-07-13T00:21:05;101113.19;;;15.04;100.00
8398;BME280;4236;54.504;9.588;2023-07-13T00:23:33;101115.47;;;15.00;100.00
8398;BME280;4236;54.504;9.588;2023-07-13T00:26:01;101119.81;;;15.01;100.00
8398;BME280;4236;54.504;9.588;2023-07-13T00:28:29;101111.53;;;15.03;100.00
8398;BME280;4236;54.504;9.588;2023-07-13T00:30:57;101109.66;;;15.03;100.00
8398;BME280;4236;54.504;9.588;2023-07-13T00:33:25;101121.03;;;15.05;100.00
8398;BME280;4236;54.504;9.588;2023-07-13T00:35:55;101112.16;;;15.05;100.00
8398;BME280;4236;54.504;9.588;2023-07-13T00:38:23;101114.59;;;15.06;100.00
8398;BME280;4236;54.504;9.588;2023-07-13T00:40:51;101106.94;;;15.10;100.00
8398;BME280;4236;54.504;9.588;2023-07-13T00:43:21;101104.25;;;15.10;100.00
8398;BME280;4236;54.504;9.588;2023-07-13T00:46:13;101104.25;;;15.10;100.00
8398;BME280;4236;54.504;9.588;2023-07-13T00:48:43;101102.59;;;15.09;100.00
8398;BME280;4236;54.504;9.588;2023-07-13T00:51:16;101099.31;;;15.07;100.00
8398;BME280;4236;54.504;9.588;2023-07-13T00:53:46;101100.59;;;15.04;100.00
8398;BME280;4236;54.504;9.588;2023-07-13T00:56:14;101088.41;;;15.02;100.00
8398;BME280;4236;54.504;9.588;2023-07-13T00:58:42;101087.78;;;15.00;100.00
8398;BME280;4236;54.504;9.588;2023-07-13T01:01:10;101094.41;;;14.97;100.00
8398;BME280;4236;54.504;9.588;2023-07-13T01:03:39;101100.03;;;14.95;100.00
8398;BME280;4236;54.504;9.588;2023-07-13T01:06:07;101106.41;;;14.94;100.00
8398;BME280;4236;54.504;9.588;2023-07-13T01:08:37;101090.53;;;14.93;100.00
8398;BME280;4236;54.504;9.588;2023-07-13T01:11:06;101100.22;;;14.94;100.00
8398;BME280;4236;54.504;9.588;2023-07-13T01:13:35;101097.34;;;14.95;100.00
8398;BME280;4236;54.504;9.588;2023-07-13T01:16:11;101099.41;;;14.93;100.00
8398;BME280;4236;54.504;9.588;2023-07-13T01:18:40;101094.03;;;14.93;100.00
8398;BME280;4236;54.504;9.588;2023-07-13T01:21:09;101094.03;;;14.93;100.00
8398;BME280;4236;54.504;9.588;2023-07-13T01:23:37;101096.50;;;14.95;100.00
8398;BME280;4236;54.504;9.588;2023-07-13T01:26:05;101106.22;;;14.96;100.00
8398;BME280;4236;54.504;9.588;2023-07-13T01:28:33;101102.47;;;14.97;100.00
8398;BME280;4236;54.504;9.588;2023-07-13T01:31:04;101100.63;;;14.98;100.00
8398;BME280;4236;54.504;9.588;2023-07-13T01:33:32;101096.47;;;15.02;100.00
8398;BME280;4236;54.504;9.588;2023-07-13T01:36:02;101097.50;;;15.01;100.00
8398;BME280;4236;54.504;9.588;2023-07-13T01:38:31;101101.00;;;15.01;100.00
8398;BME280;4236;54.504;9.588;2023-07-13T01:40:58;101094.81;;;15.01;100.00
8398;BME280;4236;54.504;9.588;2023-07-13T01:43:26;101093.16;;;15.00;100.00
8398;BME280;4236;54.504;9.588;2023-07-13T01:45:54;101094.22;;;14.99;100.00
8398;BME280;4236;54.504;9.588;2023-07-13T01:48:42;101091.97;;;14.95;100.00
8398;BME280;4236;54.504;9.588;2023-07-13T01:51:10;101089.09;;;14.90;100.00
8398;BME280;4236;54.504;9.588;2023-07-13T01:53:39;101088.06;;;14.91;100.00
8398;BME280;4236;54.504;9.588;2023-07-13T01:56:07;101084.16;;;14.87;100.00
8398;BME280;4236;54.504;9.588;2023-07-13T01:58:35;101079.84;;;14.86;100.00
8398;BME280;4236;54.504;9.588;2023-07-13T02:01:03;101081.28;;;14.82;100.00
8398;BME280;4236;54.504;9.588;2023-07-13T02:03:30;101091.22;;;14.82;100.00
8398;BME280;4236;54.504;9.588;2023-07-13T02:05:58;101083.97;;;14.82;100.00
8398;BME280;4236;54.504;9.588;2023-07-13T02:08:26;101088.53;;;14.82;100.00
8398;BME280;4236;54.504;9.588;2023-07-13T02:10:55;101088.75;;;14.80;100.00
8398;BME280;4236;54.504;9.588;2023-07-13T02:13:23;101086.91;;;14.81;100.00
8398;BME280;4236;54.504;9.588;2023-07-13T02:15:51;101085.00;;;14.81;100.00
8398;BME280;4236;54.504;9.588;2023-07-13T02:18:19;101088.75;;;14.80;100.00
8398;BME280;4236;54.504;9.588;2023-07-13T02:20:47;101093.28;;;14.80;100.00
8398;BME280;4236;54.504;9.588;2023-07-13T02:23:14;101084.41;;;14.79;100.00
8398;BME280;4236;54.504;9.588;2023-07-13T02:25:42;101086.28;;;14.79;100.00
8398;BME280;4236;54.504;9.588;2023-07-13T02:28:11;101080.53;;;14.75;100.00
8398;BME280;4236;54.504;9.588;2023-07-13T02:30:39;101077.63;;;14.77;100.00
8398;BME280;4236;54.504;9.588;2023-07-13T02:33:07;101072.47;;;14.75;100.00
8398;BME280;4236;54.504;9.588;2023-07-13T02:35:34;101075.97;;;14.76;100.00
8398;BME280;4236;54.504;9.588;2023-07-13T02:38:02;101074.75;;;14.72;100.00
8398;BME280;4236;54.504;9.588;2023-07-13T02:40:31;101072.28;;;14.70;100.00
8398;BME280;4236;54.504;9.588;2023-07-13T02:43:00;101069.81;;;14.69;100.00
8398;BME280;4236;54.504;9.588;2023-07-13T02:45:29;101066.31;;;14.68;100.00
8398;BME280;4236;54.504;9.588;2023-07-13T02:47:57;101070.03;;;14.67;100.00
8398;BME280;4236;54.504;9.588;2023-07-13T02:50:24;101067.56;;;14.66;100.00
8398;BME280;4236;54.504;9.588;2023-07-13T02:52:52;101065.72;;;14.66;100.00
8398;BME280;4236;54.504;9.588;2023-07-13T02:55:20;101067.16;;;14.69;100.00
8398;BME280;4236;54.504;9.588;2023-07-13T02:57:47;101060.94;;;14.68;100.00
8398;BME280;4236;54.504;9.588;2023-07-13T03:00:15;101061.53;;;14.70;100.00
8398;BME280;4236;54.504;9.588;2023-07-13T03:02:45;101063.19;;;14.71;100.00
8398;BME280;4236;54.504;9.588;2023-07-13T03:05:13;101061.53;;;14.70;100.00
8398;BME280;4236;54.504;9.588;2023-07-13T03:07:41;101056.81;;;14.72;100.00
8398;BME280;4236;54.504;9.588;2023-07-13T03:10:10;101065.22;;;14.76;100.00
8398;BME280;4236;54.504;9.588;2023-07-13T03:12:38;101063.38;;;14.76;100.00
8398;BME280;4236;54.504;9.588;2023-07-13T03:15:06;101065.03;;;14.77;100.00
8398;BME280;4236;54.504;9.588;2023-07-13T03:17:34;101066.22;;;14.81;100.00
8398;BME280;4236;54.504;9.588;2023-07-13T03:20:04;101055.88;;;14.85;100.00
8398;BME280;4236;54.504;9.588;2023-07-13T03:22:33;101064.31;;;14.88;100.00
8398;BME280;4236;54.504;9.588;2023-07-13T03:25:01;101067.16;;;14.93;100.00
8398;BME280;4236;54.504;9.588;2023-07-13T03:27:28;101067.56;;;14.97;100.00
8398;BME280;4236;54.504;9.588;2023-07-13T03:29:56;101065.50;;;14.99;100.00
8398;BME280;4236;54.504;9.588;2023-07-13T03:32:24;101068.56;;;15.03;100.00
8398;BME280;4236;54.504;9.588;2023-07-13T03:34:52;101059.84;;;15.07;100.00
8398;BME280;4236;54.504;9.588;2023-07-13T03:37:21;101060.84;;;15.13;100.00
8398;BME280;4236;54.504;9.588;2023-07-13T03:39:48;101064.53;;;15.18;100.00
8398;BME280;4236;54.504;9.588;2023-07-13T03:42:16;101065.31;;;15.25;100.00
8398;BME280;4236;54.504;9.588;2023-07-13T03:44:44;101073.66;;;15.35;100.00
8398;BME280;4236;54.504;9.588;2023-07-13T03:47:18;101063.88;;;15.47;100.00
8398;BME280;4236;54.504;9.588;2023-07-13T03:49:46;101074.28;;;15.62;100.00
8398;BME280;4236;54.504;9.588;2023-07-13T03:52:14;101080.59;;;15.74;100.00
8398;BME280;4236;54.504;9.588;2023-07-13T03:54:43;101073.44;;;15.86;100.00
8398;BME280;4236;54.504;9.588;2023-07-13T03:57:11;101078.88;;;15.98;100.00
8398;BME280;4236;54.504;9.588;2023-07-13T03:59:38;101080.69;;;16.04;100.00
8398;BME280;4236;54.504;9.588;2023-07-13T04:02:06;101071.50;;;16.12;100.00
8398;BME280;4236;54.504;9.588;2023-07-13T04:04:34;101073.69;;;16.21;100.00
8398;BME280;4236;54.504;9.588;2023-07-13T04:07:02;101072.47;;;16.35;100.00
8398;BME280;4236;54.504;9.588;2023-07-13T04:09:30;101074.75;;;16.50;100.00
8398;BME280;4236;54.504;9.588;2023-07-13T04:11:59;101080.78;;;16.64;100.00
8398;BME280;4236;54.504;9.588;2023-07-13T04:14:27;101078.19;;;16.75;100.00
8398;BME280;4236;54.504;9.588;2023-07-13T04:16:55;101075.72;;;16.85;100.00
8398;BME280;4236;54.504;9.588;2023-07-13T04:19:23;101079.53;;;16.96;100.00
8398;BME280;4236;54.504;9.588;2023-07-13T04:21:51;101077.78;;;17.01;100.00
8398;BME280;4236;54.504;9.588;2023-07-13T04:24:19;101069.63;;;17.20;100.00
8398;BME280;4236;54.504;9.588;2023-07-13T04:26:47;101077.34;;;17.28;100.00
8398;BME280;4236;54.504;9.588;2023-07-13T04:29:16;101079.13;;;17.34;100.00
8398;BME280;4236;54.504;9.588;2023-07-13T04:31:43;101084.53;;;17.34;100.00
8398;BME280;4236;54.504;9.588;2023-07-13T04:34:11;101087.22;;;17.34;100.00
8398;BME280;4236;54.504;9.588;2023-07-13T04:36:39;101082.28;;;17.31;100.00
8398;BME280;4236;54.504;9.588;2023-07-13T04:39:06;101096.31;;;17.21;100.00
8398;BME280;4236;54.504;9.588;2023-07-13T04:41:35;101096.22;;;17.16;100.00
8398;BME280;4236;54.504;9.588;2023-07-13T04:44:03;101098.41;;;17.07;100.00
8398;BME280;4236;54.504;9.588;2023-07-13T04:46:32;101101.41;;;16.99;100.00
8398;BME280;4236;54.504;9.588;2023-07-13T04:49:00;101112.06;;;16.94;100.00
8398;BME280;4236;54.504;9.588;2023-07-13T04:51:30;101121.06;;;16.88;100.00
8398;BME280;4236;54.504;9.588;2023-07-13T04:53:58;101123.34;;;16.73;100.00
8398;BME280;4236;54.504;9.588;2023-07-13T04:56:27;101129.06;;;16.65;100.00
8398;BME280;4236;54.504;9.588;2023-07-13T04:58:55;101137.22;;;16.58;100.00
8398;BME280;4236;54.504;9.588;2023-07-13T05:01:23;101156.84;;;16.41;100.00
8398;BME280;4236;54.504;9.588;2023-07-13T05:03:52;101154.84;;;16.18;100.00
8398;BME280;4236;54.504;9.588;2023-07-13T05:06:22;101151.63;;;16.10;100.00
8398;BME280;4236;54.504;9.588;2023-07-13T05:08:50;101141.00;;;15.96;100.00
8398;BME280;4236;54.504;9.588;2023-07-13T05:11:18;101146.56;;;15.77;100.00
8398;BME280;4236;54.504;9.588;2023-07-13T05:13:46;101151.00;;;15.65;100.00
8398;BME280;4236;54.504;9.588;2023-07-13T05:16:13;101140.91;;;15.60;100.00
8398;BME280;4236;54.504;9.588;2023-07-13T05:18:41;101143.59;;;15.60;100.00
8398;BME280;4236;54.504;9.588;2023-07-13T05:21:11;101149.34;;;15.64;100.00
8398;BME280;4236;54.504;9.588;2023-07-13T05:23:40;101143.97;;;15.64;100.00
8398;BME280;4236;54.504;9.588;2023-07-13T05:26:09;101160.06;;;15.70;100.00
8398;BME280;4236;54.504;9.588;2023-07-13T05:28:38;101158.78;;;15.73;100.00
8398;BME280;4236;54.504;9.588;2023-07-13T05:31:07;101152.75;;;15.77;100.00
8398;BME280;4236;54.504;9.588;2023-07-13T05:33:36;101161.00;;;15.82;100.00
8398;BME280;4236;54.504;9.588;2023-07-13T05:36:04;101148.47;;;15.94;100.00
8398;BME280;4236;54.504;9.588;2023-07-13T05:38:33;101154.31;;;16.10;100.00
8398;BME280;4236;54.504;9.588;2023-07-13T05:41:01;101150.56;;;16.29;100.00
8398;BME280;4236;54.504;9.588;2023-07-13T05:43:31;101154.66;;;16.56;100.00
8398;BME280;4236;54.504;9.588;2023-07-13T05:46:00;101160.47;;;17.42;100.00
8398;BME280;4236;54.504;9.588;2023-07-13T05:48:28;101156.22;;;18.22;100.00
8398;BME280;4236;54.504;9.588;2023-07-13T05:50:55;101143.50;;;18.35;100.00
8398;BME280;4236;54.504;9.588;2023-07-13T05:53:23;101135.16;;;18.48;100.00
8398;BME280;4236;54.504;9.588;2023-07-13T05:55:54;101133.16;;;18.66;100.00
8398;BME280;4236;54.504;9.588;2023-07-13T05:58:23;101138.16;;;18.74;100.00
8398;BME280;4236;54.504;9.588;2023-07-13T06:01:00;101133.44;;;18.82;100.00
8398;BME280;4236;54.504;9.588;2023-07-13T06:03:28;101145.16;;;18.87;100.00
8398;BME280;4236;54.504;9.588;2023-07-13T06:05:55;101143.59;;;18.91;100.00
8398;BME280;4236;54.504;9.588;2023-07-13T06:08:23;101149.41;;;19.11;100.00
8398;BME280;4236;54.504;9.588;2023-07-13T06:10:52;101148.81;;;19.09;100.00
8398;BME280;4236;54.504;9.588;2023-07-13T06:13:20;101153.25;;;19.15;100.00
8398;BME280;4236;54.504;9.588;2023-07-13T06:15:48;101154.06;;;19.61;100.00
8398;BME280;4236;54.504;9.588;2023-07-13T06:18:16;101141.47;;;20.21;100.00
8398;BME280;4236;54.504;9.588;2023-07-13T06:20:44;101145.69;;;20.34;100.00
8398;BME280;4236;54.504;9.588;2023-07-13T06:23:11;101145.69;;;20.77;100.00
8398;BME280;4236;54.504;9.588;2023-07-13T06:25:39;101142.69;;;21.01;100.00
8398;BME280;4236;54.504;9.588;2023-07-13T06:28:08;101133.19;;;21.25;100.00
8398;BME280;4236;54.504;9.588;2023-07-13T06:30:38;101143.03;;;21.31;100.00
8398;BME280;4236;54.504;9.588;2023-07-13T06:33:05;101148.13;;;21.27;100.00
8398;BME280;4236;54.504;9.588;2023-07-13T06:35:33;101134.72;;;21.11;100.00
8398;BME280;4236;54.504;9.588;2023-07-13T06:38:01;101140.31;;;20.82;100.00
8398;BME280;4236;54.504;9.588;2023-07-13T06:40:29;101149.81;;;20.58;100.00
8398;BME280;4236;54.504;9.588;2023-07-13T06:42:57;101153.84;;;20.56;100.00
8398;BME280;4236;54.504;9.588;2023-07-13T06:45:26;101153.22;;;20.49;100.00
8398;BME280;4236;54.504;9.588;2023-07-13T06:47:54;101158.88;;;20.47;100.00
8398;BME280;4236;54.504;9.588;2023-07-13T06:50:22;101167.38;;;20.56;100.00
8398;BME280;4236;54.504;9.588;2023-07-13T06:52:50;101168.03;;;20.63;100.00
8398;BME280;4236;54.504;9.588;2023-07-13T06:55:19;101166.69;;;20.87;100.00
8398;BME280;4236;54.504;9.588;2023-07-13T06:57:47;101170.91;;;20.78;100.00
8398;BME280;4236;54.504;9.588;2023-07-13T07:00:15;101167.25;;;20.67;100.00
8398;BME280;4236;54.504;9.588;2023-07-13T07:02:44;101160.09;;;20.56;100.00
8398;BME280;4236;54.504;9.588;2023-07-13T07:05:12;101157.44;;;20.61;100.00
8398;BME280;4236;54.504;9.588;2023-07-13T07:07:40;101147.03;;;20.53;100.00
8398;BME280;4236;54.504;9.588;2023-07-13T07:10:08;101149.69;;;20.48;100.00
8398;BME280;4236;54.504;9.588;2023-07-13T07:12:36;101147.91;;;20.37;100.00
8398;BME280;4236;54.504;9.588;2023-07-13T07:15:05;101162.03;;;20.22;100.00
8398;BME280;4236;54.504;9.588;2023-07-13T07:17:33;101174.28;;;20.25;100.00
8398;BME280;4236;54.504;9.588;2023-07-13T07:20:02;101170.34;;;20.16;100.00
8398;BME280;4236;54.504;9.588;2023-07-13T07:22:31;101167.66;;;20.16;100.00
8398;BME280;4236;54.504;9.588;2023-07-13T07:24:58;101171.81;;;20.23;100.00
8398;BME280;4236;54.504;9.588;2023-07-13T07:27:26;101170.84;;;20.29;100.00
8398;BME280;4236;54.504;9.588;2023-07-13T07:29:57;101170.84;;;20.29;100.00
8398;BME280;4236;54.504;9.588;2023-07-13T07:32:28;101170.78;;;21.38;100.00
8398;BME280;4236;54.504;9.588;2023-07-13T07:35:18;101166.78;;;22.19;100.00
8398;BME280;4236;54.504;9.588;2023-07-13T07:37:46;101154.59;;;22.79;100.00
8398;BME280;4236;54.504;9.588;2023-07-13T07:40:16;101159.63;;;23.98;100.00
8398;BME280;4236;54.504;9.588;2023-07-13T07:42:47;101153.13;;;24.68;100.00
8398;BME280;4236;54.504;9.588;2023-07-13T07:45:15;101153.19;;;25.12;100.00
8398;BME280;4236;54.504;9.588;2023-07-13T07:47:43;101147.16;;;24.66;100.00
8398;BME280;4236;54.504;9.588;2023-07-13T07:50:11;101157.13;;;24.16;100.00
8398;BME280;4236;54.504;9.588;2023-07-13T07:52:40;101146.56;;;23.39;100.00
8398;BME280;4236;54.504;9.588;2023-07-13T07:55:08;101137.25;;;23.05;100.00
8398;BME280;4236;54.504;9.588;2023-07-13T07:57:39;101142.53;;;22.59;100.00
8398;BME280;4236;54.504;9.588;2023-07-13T08:00:10;101143.00;;;22.46;100.00
8398;BME280;4236;54.504;9.588;2023-07-13T08:02:41;101143.47;;;21.86;100.00
8398;BME280;4236;54.504;9.588;2023-07-13T08:05:12;101148.06;;;22.75;100.00
8398;BME280;4236;54.504;9.588;2023-07-13T08:07:44;101135.94;;;23.18;100.00
8398;BME280;4236;54.504;9.588;2023-07-13T08:10:12;101132.13;;;23.39;100.00
8398;BME280;4236;54.504;9.588;2023-07-13T08:12:40;101132.38;;;23.88;100.00
8398;BME280;4236;54.504;9.588;2023-07-13T08:15:28;101132.34;;;24.08;100.00
8398;BME280;4236;54.504;9.588;2023-07-13T08:17:56;101138.13;;;23.71;100.00
8398;BME280;4236;54.504;9.588;2023-07-13T08:20:23;101132.13;;;23.89;100.00
8398;BME280;4236;54.504;9.588;2023-07-13T08:22:53;101134.56;;;24.01;100.00
8398;BME280;4236;54.504;9.588;2023-07-13T08:25:21;101139.19;;;23.95;100.00
8398;BME280;4236;54.504;9.588;2023-07-13T08:27:49;101137.56;;;23.79;100.00
8398;BME280;4236;54.504;9.588;2023-07-13T08:30:17;101145.41;;;23.15;100.00
8398;BME280;4236;54.504;9.588;2023-07-13T08:32:44;101153.75;;;22.73;100.00
8398;BME280;4236;54.504;9.588;2023-07-13T08:35:12;101134.25;;;23.01;100.00
8398;BME280;4236;54.504;9.588;2023-07-13T08:37:42;101141.41;;;23.53;100.00
8398;BME280;4236;54.504;9.588;2023-07-13T08:40:12;101132.69;;;23.71;100.00
8398;BME280;4236;54.504;9.588;2023-07-13T08:42:42;101130.38;;;24.39;100.00
8398;BME280;4236;54.504;9.588;2023-07-13T08:45:17;101117.91;;;24.76;100.00
8398;BME280;4236;54.504;9.588;2023-07-13T08:47:52;101118.63;;;24.38;100.00
8398;BME280;4236;54.504;9.588;2023-07-13T08:50:24;101113.59;;;23.91;100.00
8398;BME280;4236;54.504;9.588;2023-07-13T08:52:54;101132.16;;;23.44;100.00
8398;BME280;4236;54.504;9.588;2023-07-13T08:55:28;101132.91;;;22.99;100.00
8398;BME280;4236;54.504;9.588;2023-07-13T08:58:01;101128.84;;;23.37;100.00
8398;BME280;4236;54.504;9.588;2023-07-13T09:00:35;101127.25;;;23.71;100.00
8398;BME280;4236;54.504;9.588;2023-07-13T09:03:15;101120.94;;;23.81;100.00
8398;BME280;4236;54.504;9.588;2023-07-13T09:05:51;101114.09;;;24.03;100.00
8398;BME280;4236;54.504;9.588;2023-07-13T09:08:51;101115.47;;;24.16;100.00
8398;BME280;4236;54.504;9.588;2023-07-13T09:11:44;101116.69;;;24.49;93.32
8398;BME280;4236;54.504;9.588;2023-07-13T09:14:33;101133.16;;;24.23;89.39
8398;BME280;4236;54.504;9.588;2023-07-13T09:17:03;101122.06;;;23.80;91.34
8398;BME280;4236;54.504;9.588;2023-07-13T09:19:33;101130.75;;;23.87;95.00
8398;BME280;4236;54.504;9.588;2023-07-13T09:22:03;101121.16;;;24.09;93.68
8398;BME280;4236;54.504;9.588;2023-07-13T09:24:37;101124.69;;;24.25;91.24
8398;BME280;4236;54.504;9.588;2023-07-13T09:27:13;101126.41;;;24.65;85.27
8398;BME280;4236;54.504;9.588;2023-07-13T09:29:46;101132.34;;;24.77;84.09
8398;BME280;4236;54.504;9.588;2023-07-13T09:32:18;101128.06;;;25.15;84.51
8398;BME280;4236;54.504;9.588;2023-07-13T09:34:52;101133.28;;;25.45;84.64
8398;BME280;4236;54.504;9.588;2023-07-13T09:37:21;101144.56;;;25.39;78.01
8398;BME280;4236;54.504;9.588;2023-07-13T09:39:52;101138.63;;;25.26;75.26
8398;BME280;4236;54.504;9.588;2023-07-13T09:42:22;101149.41;;;25.08;74.45
8398;BME280;4236;54.504;9.588;2023-07-13T09:44:53;101149.81;;;25.25;75.53
8398;BME280;4236;54.504;9.588;2023-07-13T09:47:23;101144.13;;;25.21;77.88
8398;BME280;4236;54.504;9.588;2023-07-13T09:49:55;101159.47;;;25.12;76.31
8398;BME280;4236;54.504;9.588;2023-07-13T09:52:40;101159.97;;;25.19;78.16
8398;BME280;4236;54.504;9.588;2023-07-13T09:55:24;101147.72;;;25.12;78.04
8398;BME280;4236;54.504;9.588;2023-07-13T09:57:53;101169.13;;;25.33;77.33
8398;BME280;4236;54.504;9.588;2023-07-13T10:00:23;101166.03;;;25.11;72.38
8398;BME280;4236;54.504;9.588;2023-07-13T10:03:00;101154.91;;;25.37;74.82
8398;BME280;4236;54.504;9.588;2023-07-13T10:05:38;101154.22;;;25.21;71.65
8398;BME280;4236;54.504;9.588;2023-07-13T10:08:09;101157.13;;;25.35;72.92
8398;BME280;4236;54.504;9.588;2023-07-13T10:10:42;101149.88;;;25.59;72.92
8398;BME280;4236;54.504;9.588;2023-07-13T10:13:25;101155.69;;;25.42;73.82
8398;BME280;4236;54.504;9.588;2023-07-13T10:15:55;101159.34;;;25.33;77.20
8398;BME280;4236;54.504;9.588;2023-07-13T10:18:28;101178.66;;;24.97;77.09
8398;BME280;4236;54.504;9.588;2023-07-13T10:21:09;101190.09;;;24.20;87.27
8398;BME280;4236;54.504;9.588;2023-07-13T10:24:05;101193.91;;;24.24;82.14
8398;BME280;4236;54.504;9.588;2023-07-13T10:26:34;101191.47;;;24.17;80.11
8398;BME280;4236;54.504;9.588;2023-07-13T10:29:06;101187.81;;;24.57;72.58
8398;BME280;4236;54.504;9.588;2023-07-13T10:31:38;101195.91;;;24.88;70.59
8398;BME280;4236;54.504;9.588;2023-07-13T10:34:09;101196.59;;;24.44;85.31
8398;BME280;4236;54.504;9.588;2023-07-13T10:36:40;101192.84;;;23.69;87.90
8398;BME280;4236;54.504;9.588;2023-07-13T10:39:15;101193.97;;;23.53;98.48
8398;BME280;4236;54.504;9.588;2023-07-13T10:41:44;101194.69;;;23.19;99.36
8398;BME280;4236;54.504;9.588;2023-07-13T10:44:21;101190.06;;;23.24;100.00
8398;BME280;4236;54.504;9.588;2023-07-13T10:46:55;101198.50;;;23.28;100.00
8398;BME280;4236;54.504;9.588;2023-07-13T10:49:24;101198.56;;;23.43;100.00
8398;BME280;4236;54.504;9.588;2023-07-13T10:51:54;101193.66;;;23.60;100.00
8398;BME280;4236;54.504;9.588;2023-07-13T10:54:27;101195.00;;;23.93;100.00
8398;BME280;4236;54.504;9.588;2023-07-13T10:57:10;101193.38;;;24.27;100.00
8398;BME280;4236;54.504;9.588;2023-07-13T10:59:46;101196.03;;;24.47;100.00
8398;BME280;4236;54.504;9.588;2023-07-13T11:02:22;101180.41;;;24.68;100.00
8398;BME280;4236;54.504;9.588;2023-07-13T11:04:54;101192.53;;;24.37;100.00
8398;BME280;4236;54.504;9.588;2023-07-13T11:07:25;101186.84;;;24.18;100.00
8398;BME280;4236;54.504;9.588;2023-07-13T11:09:55;101188.38;;;24.49;95.53
8398;BME280;4236;54.504;9.588;2023-07-13T11:12:51;101177.47;;;24.49;93.33
8398;BME280;4236;54.504;9.588;2023-07-13T11:15:42;101190.47;;;24.83;90.78
8398;BME280;4236;54.504;9.588;2023-07-13T11:18:21;101188.38;;;25.13;84.31
8398;BME280;4236;54.504;9.588;2023-07-13T11:20:49;101181.56;;;25.16;83.34
8398;BME280;4236;54.504;9.588;2023-07-13T11:23:20;101193.50;;;25.25;84.13
8398;BME280;4236;54.504;9.588;2023-07-13T11:25:54;101198.66;;;25.31;82.25
8398;BME280;4236;54.504;9.588;2023-07-13T11:28:24;101185.03;;;25.26;82.10
8398;BME280;4236;54.504;9.588;2023-07-13T11:31:13;101192.38;;;25.31;78.19
8398;BME280;4236;54.504;9.588;2023-07-13T11:33:56;101192.25;;;25.51;71.80
8398;BME280;4236;54.504;9.588;2023-07-13T11:36:30;101201.34;;;25.37;73.56
8398;BME280;4236;54.504;9.588;2023-07-13T11:39:02;101196.88;;;25.51;75.27
8398;BME280;4236;54.504;9.588;2023-07-13T11:41:32;101212.47;;;25.01;72.35
8398;BME280;4236;54.504;9.588;2023-07-13T11:44:07;101208.47;;;24.84;72.98
8398;BME280;4236;54.504;9.588;2023-07-13T11:46:37;101207.53;;;24.34;72.46
8398;BME280;4236;54.504;9.588;2023-07-13T11:49:05;101200.81;;;24.91;74.60
8398;BME280;4236;54.504;9.588;2023-07-13T11:51:35;101208.78;;;25.26;77.67
8398;BME280;4236;54.504;9.588;2023-07-13T11:54:05;101217.03;;;25.16;78.06
8398;BME280;4236;54.504;9.588;2023-07-13T11:56:34;101225.66;;;24.84;72.74
8398;BME280;4236;54.504;9.588;2023-07-13T11:59:07;101222.91;;;24.89;71.99
8398;BME280;4236;54.504;9.588;2023-07-13T12:01:42;101229.19;;;25.33;77.93
8398;BME280;4236;54.504;9.588;2023-07-13T12:04:20;101229.53;;;25.66;69.70
8398;BME280;4236;54.504;9.588;2023-07-13T12:06:55;101232.59;;;25.93;68.07
8398;BME280;4236;54.504;9.588;2023-07-13T12:09:27;101229.97;;;25.83;68.24
8398;BME280;4236;54.504;9.588;2023-07-13T12:11:56;101232.06;;;25.57;70.67
8398;BME280;4236;54.504;9.588;2023-07-13T12:14:24;101226.69;;;24.98;68.88
8398;BME280;4236;54.504;9.588;2023-07-13T12:16:55;101224.88;;;24.68;71.95
8398;BME280;4236;54.504;9.588;2023-07-13T12:19:27;101231.50;;;24.37;73.63
8398;BME280;4236;54.504;9.588;2023-07-13T12:21:57;101230.66;;;24.52;71.11
8398;BME280;4236;54.504;9.588;2023-07-13T12:24:25;101219.31;;;24.99;70.82
8398;BME280;4236;54.504;9.588;2023-07-13T12:26:58;101227.72;;;25.07;69.22
8398;BME280;4236;54.504;9.588;2023-07-13T12:29:27;101229.03;;;25.15;68.47
8398;BME280;4236;54.504;9.588;2023-07-13T12:31:57;101233.22;;;25.02;67.19
8398;BME280;4236;54.504;9.588;2023-07-13T12:34:26;101240.38;;;24.78;70.28
8398;BME280;4236;54.504;9.588;2023-07-13T12:36:55;101240.50;;;24.22;78.59
8398;BME280;4236;54.504;9.588;2023-07-13T12:39:25;101255.22;;;24.16;78.01
8398;BME280;4236;54.504;9.588;2023-07-13T12:42:16;101253.34;;;24.12;82.61
8398;BME280;4236;54.504;9.588;2023-07-13T12:44:46;101260.38;;;23.62;87.21
8398;BME280;4236;54.504;9.588;2023-07-13T12:47:15;101263.69;;;23.95;87.30
8398;BME280;4236;54.504;9.588;2023-07-13T12:49:49;101275.41;;;24.31;78.46
8398;BME280;4236;54.504;9.588;2023-07-13T12:52:20;101277.78;;;24.62;76.00
8398;BME280;4236;54.504;9.588;2023-07-13T12:54:55;101270.09;;;24.90;72.33
8398;BME280;4236;54.504;9.588;2023-07-13T12:57:38;101258.34;;;24.94;65.73
8398;BME280;4236;54.504;9.588;2023-07-13T13:00:20;101273.03;;;25.08;68.23
8398;BME280;4236;54.504;9.588;2023-07-13T13:02:52;101273.94;;;24.78;73.01
8398;BME280;4236;54.504;9.588;2023-07-13T13:05:34;101278.09;;;24.51;74.68
8398;BME280;4236;54.504;9.588;2023-07-13T13:08:04;101278.63;;;24.53;76.23
8398;BME280;4236;54.504;9.588;2023-07-13T13:10:31;101288.44;;;24.59;75.40
8398;BME280;4236;54.504;9.588;2023-07-13T13:12:59;101283.84;;;24.39;75.43
8398;BME280;4236;54.504;9.588;2023-07-13T13:15:27;101288.50;;;24.34;75.49
8398;BME280;4236;54.504;9.588;2023-07-13T13:17:57;101290.69;;;24.21;76.82
8398;BME280;4236;54.504;9.588;2023-07-13T13:20:25;101286.00;;;23.87;77.78